sensor_id;sensor_type;location;lat;lon;timestamp;temperature;humidity
75387;DHT22;63966;47.914;22.266;2023-02-28T00:02:54;1.34;80.51
75387;DHT22;63966;47.914;22.266;2023-02-28T00:05:57;1.34;79.82
75387;DHT22;63966;47.914;22.266;2023-02-28T00:09:01;1.31;80.45
75387;DHT22;63966;47.914;22.266;2023-02-28T00:12:04;1.38;80.11
75387;DHT22;63966;47.914;22.266;2023-02-28T00:15:13;1.45;79.50
75387;DHT22;63966;47.914;22.266;2023-02-28T00:18:16;1.46;79.63
75387;DHT22;63966;47.914;22.266;2023-02-28T00:21:20;1.42;79.62
75387;DHT22;63966;47.914;22.266;2023-02-28T00:24:24;1.46;80.08
75387;DHT22;63966;47.914;22.266;2023-02-28T00:27:27;1.56;79.43
75387;DHT22;63966;47.914;22.266;2023-02-28T00:30:31;1.55;78.65
75387;DHT22;63966;47.914;22.266;2023-02-28T00:33:34;1.55;78.89
75387;DHT22;63966;47.914;22.266;2023-02-28T00:36:38;1.53;79.22
75387;DHT22;63966;47.914;22.266;2023-02-28T00:39:42;1.47;79.45
75387;DHT22;63966;47.914;22.266;2023-02-28T00:42:45;1.47;79.40
75387;DHT22;63966;47.914;22.266;2023-02-28T00:45:49;1.55;79.32
75387;DHT22;63966;47.914;22.266;2023-02-28T00:48:53;1.50;79.13
75387;DHT22;63966;47.914;22.266;2023-02-28T00:51:57;1.52;79.45
75387;DHT22;63966;47.914;22.266;2023-02-28T00:55:02;1.47;79.42
75387;DHT22;63966;47.914;22.266;2023-02-28T00:58:05;1.46;79.28
75387;DHT22;63966;47.914;22.266;2023-02-28T01:01:08;1.47;79.53
75387;DHT22;63966;47.914;22.266;2023-02-28T01:04:14;1.39;79.62
75387;DHT22;63966;47.914;22.266;2023-02-28T01:07:17;1.39;79.89
75387;DHT22;63966;47.914;22.266;2023-02-28T01:10:22;1.35;80.04
75387;DHT22;63966;47.914;22.266;2023-02-28T01:13:25;1.32;79.86
75387;DHT22;63966;47.914;22.266;2023-02-28T01:16:29;1.34;79.81
75387;DHT22;63966;47.914;22.266;2023-02-28T01:19:33;1.32;79.47
75387;DHT22;63966;47.914;22.266;2023-02-28T01:22:38;1.42;79.47
75387;DHT22;63966;47.914;22.266;2023-02-28T01:25:43;1.39;79.26
75387;DHT22;63966;47.914;22.266;2023-02-28T01:28:47;1.40;79.80
75387;DHT22;63966;47.914;22.266;2023-02-28T01:31:51;1.45;79.88
75387;DHT22;63966;47.914;22.266;2023-02-28T01:34:54;1.39;79.32
75387;DHT22;63966;47.914;22.266;2023-02-28T01:37:58;1.35;79.50
75387;DHT22;63966;47.914;22.266;2023-02-28T01:41:28;1.40;79.81
75387;DHT22;63966;47.914;22.266;2023-02-28T01:48:05;1.34;80.30
75387;DHT22;63966;47.914;22.266;2023-02-28T01:51:18;1.28;80.09
75387;DHT22;63966;47.914;22.266;2023-02-28T01:54:29;1.26;79.87
75387;DHT22;63966;47.914;22.266;2023-02-28T01:57:40;1.25;79.83
75387;DHT22;63966;47.914;22.266;2023-02-28T02:00:46;1.32;80.02
75387;DHT22;63966;47.914;22.266;2023-02-28T02:04:03;1.36;80.15
75387;DHT22;63966;47.914;22.266;2023-02-28T02:07:07;1.35;79.52
75387;DHT22;63966;47.914;22.266;2023-02-28T02:10:14;1.39;79.86
75387;DHT22;63966;47.914;22.266;2023-02-28T02:13:42;1.36;79.44
75387;DHT22;63966;47.914;22.266;2023-02-28T02:20:37;1.17;80.55
75387;DHT22;63966;47.914;22.266;2023-02-28T02:24:03;1.22;80.18
75387;DHT22;63966;47.914;22.266;2023-02-28T02:27:20;1.31;79.86
75387;DHT22;63966;47.914;22.266;2023-02-28T02:40:58;1.19;79.65
75387;DHT22;63966;47.914;22.266;2023-02-28T02:44:32;1.26;79.72
75387;DHT22;63966;47.914;22.266;2023-02-28T02:47:37;1.25;79.64
75387;DHT22;63966;47.914;22.266;2023-02-28T02:50:49;1.29;79.44
75387;DHT22;63966;47.914;22.266;2023-02-28T02:54:13;1.25;79.84
75387;DHT22;63966;47.914;22.266;2023-02-28T02:57:30;1.25;79.31
75387;DHT22;63966;47.914;22.266;2023-02-28T03:00:41;1.21;79.31
75387;DHT22;63966;47.914;22.266;2023-02-28T03:03:46;1.22;79.03
75387;DHT22;63966;47.914;22.266;2023-02-28T03:06:51;1.19;79.58
75387;DHT22;63966;47.914;22.266;2023-02-28T03:09:58;1.17;79.28
75387;DHT22;63966;47.914;22.266;2023-02-28T03:13:31;1.19;79.55
75387;DHT22;63966;47.914;22.266;2023-02-28T03:23:21;1.15;79.26
75387;DHT22;63966;47.914;22.266;2023-02-28T03:26:27;1.14;79.58
75387;DHT22;63966;47.914;22.266;2023-02-28T03:29:42;1.15;79.47
75387;DHT22;63966;47.914;22.266;2023-02-28T03:32:57;1.21;79.56
75387;DHT22;63966;47.914;22.266;2023-02-28T03:36:09;1.24;79.19
75387;DHT22;63966;47.914;22.266;2023-02-28T03:39:22;1.07;79.76
75387;DHT22;63966;47.914;22.266;2023-02-28T03:42:31;1.04;79.49
75387;DHT22;63966;47.914;22.266;2023-02-28T03:45:36;0.98;78.82
75387;DHT22;63966;47.914;22.266;2023-02-28T03:48:56;0.97;79.17
75387;DHT22;63966;47.914;22.266;2023-02-28T03:52:03;0.97;79.15
75387;DHT22;63966;47.914;22.266;2023-02-28T03:55:11;0.88;79.44
75387;DHT22;63966;47.914;22.266;2023-02-28T03:58:35;0.81;79.69
75387;DHT22;63966;47.914;22.266;2023-02-28T04:01:48;0.88;79.67
75387;DHT22;63966;47.914;22.266;2023-02-28T04:04:52;0.90;79.29
75387;DHT22;63966;47.914;22.266;2023-02-28T04:08:04;0.71;80.15
75387;DHT22;63966;47.914;22.266;2023-02-28T04:11:20;0.61;80.13
75387;DHT22;63966;47.914;22.266;2023-02-28T04:14:24;0.56;80.45
75387;DHT22;63966;47.914;22.266;2023-02-28T04:17:28;0.53;80.31
75387;DHT22;63966;47.914;22.266;2023-02-28T04:20:31;0.53;80.23
75387;DHT22;63966;47.914;22.266;2023-02-28T04:23:35;0.49;80.85
75387;DHT22;63966;47.914;22.266;2023-02-28T04:26:38;0.42;80.69
75387;DHT22;63966;47.914;22.266;2023-02-28T04:29:42;0.38;80.95
75387;DHT22;63966;47.914;22.266;2023-02-28T04:32:47;0.40;81.19
75387;DHT22;63966;47.914;22.266;2023-02-28T04:36:02;0.35;81.00
75387;DHT22;63966;47.914;22.266;2023-02-28T04:39:06;0.28;81.15
75387;DHT22;63966;47.914;22.266;2023-02-28T04:42:10;0.25;81.43
75387;DHT22;63966;47.914;22.266;2023-02-28T04:45:14;0.19;81.18
75387;DHT22;63966;47.914;22.266;2023-02-28T04:48:17;0.19;81.27
75387;DHT22;63966;47.914;22.266;2023-02-28T04:51:24;0.22;81.17
75387;DHT22;63966;47.914;22.266;2023-02-28T04:54:28;0.22;81.05
75387;DHT22;63966;47.914;22.266;2023-02-28T04:57:32;0.22;80.65
75387;DHT22;63966;47.914;22.266;2023-02-28T05:00:36;0.19;80.94
75387;DHT22;63966;47.914;22.266;2023-02-28T05:03:40;0.19;80.99
75387;DHT22;63966;47.914;22.266;2023-02-28T05:06:44;0.21;81.33
75387;DHT22;63966;47.914;22.266;2023-02-28T05:09:48;0.23;81.69
75387;DHT22;63966;47.914;22.266;2023-02-28T05:12:51;0.22;80.86
75387;DHT22;63966;47.914;22.266;2023-02-28T05:15:55;0.26;80.56
75387;DHT22;63966;47.914;22.266;2023-02-28T05:18:59;0.30;80.76
75387;DHT22;63966;47.914;22.266;2023-02-28T05:22:03;0.32;80.29
75387;DHT22;63966;47.914;22.266;2023-02-28T05:25:08;0.40;80.04
75387;DHT22;63966;47.914;22.266;2023-02-28T05:28:12;0.39;79.80
75387;DHT22;63966;47.914;22.266;2023-02-28T05:31:16;0.36;80.19
75387;DHT22;63966;47.914;22.266;2023-02-28T05:34:19;0.28;80.06
75387;DHT22;63966;47.914;22.266;2023-02-28T05:37:23;0.38;79.90
75387;DHT22;63966;47.914;22.266;2023-02-28T05:40:26;0.36;80.01
75387;DHT22;63966;47.914;22.266;2023-02-28T05:43:30;0.43;79.60
75387;DHT22;63966;47.914;22.266;2023-02-28T05:46:34;0.46;79.12
75387;DHT22;63966;47.914;22.266;2023-02-28T05:49:37;0.49;79.36
75387;DHT22;63966;47.914;22.266;2023-02-28T05:52:41;0.50;79.19
75387;DHT22;63966;47.914;22.266;2023-02-28T05:55:45;0.43;78.94
75387;DHT22;63966;47.914;22.266;2023-02-28T05:58:51;0.52;78.90
75387;DHT22;63966;47.914;22.266;2023-02-28T06:01:54;0.53;79.02
75387;DHT22;63966;47.914;22.266;2023-02-28T06:04:58;0.50;78.52
75387;DHT22;63966;47.914;22.266;2023-02-28T06:08:02;0.64;78.80
75387;DHT22;63966;47.914;22.266;2023-02-28T06:11:05;0.77;78.20
75387;DHT22;63966;47.914;22.266;2023-02-28T06:14:20;1.01;76.73
75387;DHT22;63966;47.914;22.266;2023-02-28T06:17:23;1.18;76.34
75387;DHT22;63966;47.914;22.266;2023-02-28T06:20:28;1.26;75.64
75387;DHT22;63966;47.914;22.266;2023-02-28T06:23:32;1.17;75.37
75387;DHT22;63966;47.914;22.266;2023-02-28T06:26:36;1.24;75.43
75387;DHT22;63966;47.914;22.266;2023-02-28T06:29:40;1.29;75.25
75387;DHT22;63966;47.914;22.266;2023-02-28T06:32:44;1.43;75.04
75387;DHT22;63966;47.914;22.266;2023-02-28T06:35:51;1.62;74.57
75387;DHT22;63966;47.914;22.266;2023-02-28T06:38:55;1.57;74.22
75387;DHT22;63966;47.914;22.266;2023-02-28T06:41:59;1.80;74.69
75387;DHT22;63966;47.914;22.266;2023-02-28T06:45:03;1.86;74.59
75387;DHT22;63966;47.914;22.266;2023-02-28T06:48:12;1.88;73.68
75387;DHT22;63966;47.914;22.266;2023-02-28T06:51:19;1.93;74.22
75387;DHT22;63966;47.914;22.266;2023-02-28T06:54:25;1.95;74.43
75387;DHT22;63966;47.914;22.266;2023-02-28T06:57:32;1.94;73.39
75387;DHT22;63966;47.914;22.266;2023-02-28T07:00:37;2.03;73.61
75387;DHT22;63966;47.914;22.266;2023-02-28T07:03:41;2.14;73.27
75387;DHT22;63966;47.914;22.266;2023-02-28T07:06:44;2.21;73.17
75387;DHT22;63966;47.914;22.266;2023-02-28T07:09:48;2.34;72.55
75387;DHT22;63966;47.914;22.266;2023-02-28T07:12:51;2.63;72.38
75387;DHT22;63966;47.914;22.266;2023-02-28T07:16:00;2.34;71.54
75387;DHT22;63966;47.914;22.266;2023-02-28T07:19:04;2.25;73.51
75387;DHT22;63966;47.914;22.266;2023-02-28T07:22:08;2.20;73.58
75387;DHT22;63966;47.914;22.266;2023-02-28T07:25:12;2.08;72.95
75387;DHT22;63966;47.914;22.266;2023-02-28T07:28:15;2.22;73.23
75387;DHT22;63966;47.914;22.266;2023-02-28T07:31:19;2.28;73.14
75387;DHT22;63966;47.914;22.266;2023-02-28T07:34:23;2.41;72.18
75387;DHT22;63966;47.914;22.266;2023-02-28T07:37:27;2.57;71.98
75387;DHT22;63966;47.914;22.266;2023-02-28T07:40:31;2.90;71.10
75387;DHT22;63966;47.914;22.266;2023-02-28T07:43:37;3.01;70.08
75387;DHT22;63966;47.914;22.266;2023-02-28T07:46:41;2.94;70.32
75387;DHT22;63966;47.914;22.266;2023-02-28T07:49:46;3.12;69.99
75387;DHT22;63966;47.914;22.266;2023-02-28T07:52:49;2.97;70.32
75387;DHT22;63966;47.914;22.266;2023-02-28T07:55:58;3.10;70.73
75387;DHT22;63966;47.914;22.266;2023-02-28T07:59:02;3.65;69.35
75387;DHT22;63966;47.914;22.266;2023-02-28T08:02:06;4.62;64.72
75387;DHT22;63966;47.914;22.266;2023-02-28T08:05:09;4.64;64.66
75387;DHT22;63966;47.914;22.266;2023-02-28T08:08:14;4.71;65.14
75387;DHT22;63966;47.914;22.266;2023-02-28T08:11:17;4.71;64.79
75387;DHT22;63966;47.914;22.266;2023-02-28T08:14:21;4.71;65.47
75387;DHT22;63966;47.914;22.266;2023-02-28T08:17:25;4.77;65.21
75387;DHT22;63966;47.914;22.266;2023-02-28T08:20:29;4.49;66.26
75387;DHT22;63966;47.914;22.266;2023-02-28T08:23:32;3.93;67.78
75387;DHT22;63966;47.914;22.266;2023-02-28T08:26:36;3.65;67.95
75387;DHT22;63966;47.914;22.266;2023-02-28T08:29:40;3.94;69.75
75387;DHT22;63966;47.914;22.266;2023-02-28T08:32:44;3.90;68.24
75387;DHT22;63966;47.914;22.266;2023-02-28T08:35:47;3.73;68.77
75387;DHT22;63966;47.914;22.266;2023-02-28T08:38:51;4.07;68.15
75387;DHT22;63966;47.914;22.266;2023-02-28T08:41:55;4.13;69.24
75387;DHT22;63966;47.914;22.266;2023-02-28T08:45:10;4.00;68.20
75387;DHT22;63966;47.914;22.266;2023-02-28T08:48:14;4.27;68.92
75387;DHT22;63966;47.914;22.266;2023-02-28T08:51:21;4.30;68.02
75387;DHT22;63966;47.914;22.266;2023-02-28T08:54:30;4.44;67.95
75387;DHT22;63966;47.914;22.266;2023-02-28T08:57:35;4.11;67.31
75387;DHT22;63966;47.914;22.266;2023-02-28T09:00:40;4.14;66.95
75387;DHT22;63966;47.914;22.266;2023-02-28T09:03:45;4.04;68.29
75387;DHT22;63966;47.914;22.266;2023-02-28T09:06:49;4.13;67.11
75387;DHT22;63966;47.914;22.266;2023-02-28T09:09:53;4.24;67.62
75387;DHT22;63966;47.914;22.266;2023-02-28T09:12:58;4.34;67.63
75387;DHT22;63966;47.914;22.266;2023-02-28T09:16:04;4.58;67.91
75387;DHT22;63966;47.914;22.266;2023-02-28T09:19:11;4.92;66.56
75387;DHT22;63966;47.914;22.266;2023-02-28T09:22:15;5.12;66.26
75387;DHT22;63966;47.914;22.266;2023-02-28T09:25:19;4.89;65.57
75387;DHT22;63966;47.914;22.266;2023-02-28T09:28:23;4.77;66.41
75387;DHT22;63966;47.914;22.266;2023-02-28T09:31:28;4.96;66.82
75387;DHT22;63966;47.914;22.266;2023-02-28T09:34:32;5.20;66.20
75387;DHT22;63966;47.914;22.266;2023-02-28T09:37:36;5.54;65.17
75387;DHT22;63966;47.914;22.266;2023-02-28T09:43:55;5.56;66.60
75387;DHT22;63966;47.914;22.266;2023-02-28T09:47:10;5.54;63.86
75387;DHT22;63966;47.914;22.266;2023-02-28T09:50:30;5.86;65.42
75387;DHT22;63966;47.914;22.266;2023-02-28T09:53:38;6.13;63.87
75387;DHT22;63966;47.914;22.266;2023-02-28T09:56:45;6.16;65.64
75387;DHT22;63966;47.914;22.266;2023-02-28T10:00:41;6.17;63.33
75387;DHT22;63966;47.914;22.266;2023-02-28T10:07:02;5.99;64.32
75387;DHT22;63966;47.914;22.266;2023-02-28T10:13:35;6.10;62.68
75387;DHT22;63966;47.914;22.266;2023-02-28T10:16:58;6.09;65.51
75387;DHT22;63966;47.914;22.266;2023-02-28T10:20:07;6.00;63.23
75387;DHT22;63966;47.914;22.266;2023-02-28T10:23:42;5.89;65.02
75387;DHT22;63966;47.914;22.266;2023-02-28T10:26:48;6.02;63.12
75387;DHT22;63966;47.914;22.266;2023-02-28T10:29:56;5.98;62.95
75387;DHT22;63966;47.914;22.266;2023-02-28T10:33:00;5.96;64.48
75387;DHT22;63966;47.914;22.266;2023-02-28T10:36:04;5.81;65.90
75387;DHT22;63966;47.914;22.266;2023-02-28T10:39:35;5.59;65.90
75387;DHT22;63966;47.914;22.266;2023-02-28T10:42:41;5.65;65.01
75387;DHT22;63966;47.914;22.266;2023-02-28T10:45:59;6.03;64.79
75387;DHT22;63966;47.914;22.266;2023-02-28T10:49:12;6.10;65.64
75387;DHT22;63966;47.914;22.266;2023-02-28T10:52:34;6.40;64.56
75387;DHT22;63966;47.914;22.266;2023-02-28T10:55:39;6.85;64.13
75387;DHT22;63966;47.914;22.266;2023-02-28T10:58:59;7.06;62.07
75387;DHT22;63966;47.914;22.266;2023-02-28T11:02:08;7.33;60.69
75387;DHT22;63966;47.914;22.266;2023-02-28T11:08:32;7.13;62.00
75387;DHT22;63966;47.914;22.266;2023-02-28T11:11:46;7.10;61.24
75387;DHT22;63966;47.914;22.266;2023-02-28T11:14:58;7.09;61.09
75387;DHT22;63966;47.914;22.266;2023-02-28T11:21:27;7.13;62.44
75387;DHT22;63966;47.914;22.266;2023-02-28T11:24:37;7.10;62.39
75387;DHT22;63966;47.914;22.266;2023-02-28T11:27:54;7.28;62.19
75387;DHT22;63966;47.914;22.266;2023-02-28T11:34:26;7.46;61.49
75387;DHT22;63966;47.914;22.266;2023-02-28T11:37:31;7.36;62.10
75387;DHT22;63966;47.914;22.266;2023-02-28T11:44:21;7.68;61.41
75387;DHT22;63966;47.914;22.266;2023-02-28T12:00:40;8.02;60.68
75387;DHT22;63966;47.914;22.266;2023-02-28T12:04:16;7.85;60.86
75387;DHT22;63966;47.914;22.266;2023-02-28T12:11:12;7.63;62.11
75387;DHT22;63966;47.914;22.266;2023-02-28T12:28:13;7.73;61.43
75387;DHT22;63966;47.914;22.266;2023-02-28T12:31:23;7.68;63.27
75387;DHT22;63966;47.914;22.266;2023-02-28T12:34:36;7.77;62.28
75387;DHT22;63966;47.914;22.266;2023-02-28T12:41:05;7.75;62.38
75387;DHT22;63966;47.914;22.266;2023-02-28T12:47:33;8.10;63.76
75387;DHT22;63966;47.914;22.266;2023-02-28T12:50:37;8.17;61.54
75387;DHT22;63966;47.914;22.266;2023-02-28T12:56:56;8.06;62.25
75387;DHT22;63966;47.914;22.266;2023-02-28T13:00:14;7.81;64.25
75387;DHT22;63966;47.914;22.266;2023-02-28T13:10:02;8.15;62.20
75387;DHT22;63966;47.914;22.266;2023-02-28T13:13:24;8.23;63.37
75387;DHT22;63966;47.914;22.266;2023-02-28T13:16:52;8.09;62.60
75387;DHT22;63966;47.914;22.266;2023-02-28T13:20:01;8.26;62.58
75387;DHT22;63966;47.914;22.266;2023-02-28T14:36:16;7.84;65.73
75387;DHT22;63966;47.914;22.266;2023-02-28T14:39:24;7.73;66.06
75387;DHT22;63966;47.914;22.266;2023-02-28T14:42:37;7.79;66.22
75387;DHT22;63966;47.914;22.266;2023-02-28T14:46:00;7.81;66.41
75387;DHT22;63966;47.914;22.266;2023-02-28T14:49:06;7.73;66.09
75387;DHT22;63966;47.914;22.266;2023-02-28T14:55:25;7.71;65.83
75387;DHT22;63966;47.914;22.266;2023-02-28T14:58:32;7.67;66.10
75387;DHT22;63966;47.914;22.266;2023-02-28T15:01:43;7.70;66.13
75387;DHT22;63966;47.914;22.266;2023-02-28T15:04:57;7.64;66.32
75387;DHT22;63966;47.914;22.266;2023-02-28T15:08:13;7.64;66.50
75387;DHT22;63966;47.914;22.266;2023-02-28T15:11:19;7.44;66.54
75387;DHT22;63966;47.914;22.266;2023-02-28T15:14:26;7.42;66.97
75387;DHT22;63966;47.914;22.266;2023-02-28T15:17:31;7.46;66.46
75387;DHT22;63966;47.914;22.266;2023-02-28T15:20:36;7.34;67.90
75387;DHT22;63966;47.914;22.266;2023-02-28T15:23:49;7.27;68.46
75387;DHT22;63966;47.914;22.266;2023-02-28T15:27:03;7.17;69.16
75387;DHT22;63966;47.914;22.266;2023-02-28T15:30:14;7.31;68.66
75387;DHT22;63966;47.914;22.266;2023-02-28T15:33:23;7.09;69.00
75387;DHT22;63966;47.914;22.266;2023-02-28T15:36:30;7.02;68.72
75387;DHT22;63966;47.914;22.266;2023-02-28T15:39:42;6.93;68.12
75387;DHT22;63966;47.914;22.266;2023-02-28T15:43:14;6.88;68.40
75387;DHT22;63966;47.914;22.266;2023-02-28T15:46:20;6.85;68.26
75387;DHT22;63966;47.914;22.266;2023-02-28T15:49:26;6.82;68.62
75387;DHT22;63966;47.914;22.266;2023-02-28T15:52:39;6.74;68.81
75387;DHT22;63966;47.914;22.266;2023-02-28T15:55:44;6.67;69.65
75387;DHT22;63966;47.914;22.266;2023-02-28T15:58:48;6.54;70.93
75387;DHT22;63966;47.914;22.266;2023-02-28T16:05:28;6.27;71.31
75387;DHT22;63966;47.914;22.266;2023-02-28T16:08:33;6.10;71.26
75387;DHT22;63966;47.914;22.266;2023-02-28T16:11:40;6.06;71.31
75387;DHT22;63966;47.914;22.266;2023-02-28T16:14:44;5.85;71.84
75387;DHT22;63966;47.914;22.266;2023-02-28T16:17:48;5.69;72.57
75387;DHT22;63966;47.914;22.266;2023-02-28T16:20:52;5.48;73.17
75387;DHT22;63966;47.914;22.266;2023-02-28T16:23:56;5.40;73.57
75387;DHT22;63966;47.914;22.266;2023-02-28T16:27:00;5.30;73.95
75387;DHT22;63966;47.914;22.266;2023-02-28T16:30:06;5.17;74.33
75387;DHT22;63966;47.914;22.266;2023-02-28T16:33:10;5.14;74.42
75387;DHT22;63966;47.914;22.266;2023-02-28T16:36:18;5.04;75.36
75387;DHT22;63966;47.914;22.266;2023-02-28T16:39:23;4.96;75.32
75387;DHT22;63966;47.914;22.266;2023-02-28T16:42:28;4.83;76.29
75387;DHT22;63966;47.914;22.266;2023-02-28T16:45:34;4.71;76.42
75387;DHT22;63966;47.914;22.266;2023-02-28T16:48:37;4.65;77.11
75387;DHT22;63966;47.914;22.266;2023-02-28T16:51:42;4.65;77.02
75387;DHT22;63966;47.914;22.266;2023-02-28T16:54:46;4.65;77.19
75387;DHT22;63966;47.914;22.266;2023-02-28T16:57:54;4.54;78.00
75387;DHT22;63966;47.914;22.266;2023-02-28T17:00:58;4.48;78.16
75387;DHT22;63966;47.914;22.266;2023-02-28T17:04:02;4.46;77.90
75387;DHT22;63966;47.914;22.266;2023-02-28T17:07:12;4.58;77.67
75387;DHT22;63966;47.914;22.266;2023-02-28T17:10:22;4.61;77.42
75387;DHT22;63966;47.914;22.266;2023-02-28T17:13:26;4.54;78.03
75387;DHT22;63966;47.914;22.266;2023-02-28T17:16:34;4.58;78.05
75387;DHT22;63966;47.914;22.266;2023-02-28T17:19:39;4.37;78.70
75387;DHT22;63966;47.914;22.266;2023-02-28T17:22:46;4.20;79.48
75387;DHT22;63966;47.914;22.266;2023-02-28T17:25:49;4.18;79.50
75387;DHT22;63966;47.914;22.266;2023-02-28T17:29:00;4.04;80.12
75387;DHT22;63966;47.914;22.266;2023-02-28T17:32:04;4.11;80.06
75387;DHT22;63966;47.914;22.266;2023-02-28T17:35:19;4.27;79.43
75387;DHT22;63966;47.914;22.266;2023-02-28T17:38:23;4.24;79.47
75387;DHT22;63966;47.914;22.266;2023-02-28T17:41:27;4.22;79.80
75387;DHT22;63966;47.914;22.266;2023-02-28T17:44:33;4.30;79.68
75387;DHT22;63966;47.914;22.266;2023-02-28T17:47:37;4.34;79.66
75387;DHT22;63966;47.914;22.266;2023-02-28T17:50:41;4.34;79.85
75387;DHT22;63966;47.914;22.266;2023-02-28T17:53:45;4.44;79.72
75387;DHT22;63966;47.914;22.266;2023-02-28T17:56:49;4.55;79.10
75387;DHT22;63966;47.914;22.266;2023-02-28T17:59:52;4.59;78.46
75387;DHT22;63966;47.914;22.266;2023-02-28T18:02:56;4.68;79.10
75387;DHT22;63966;47.914;22.266;2023-02-28T18:06:04;4.54;79.60
75387;DHT22;63966;47.914;22.266;2023-02-28T18:09:09;4.52;80.45
75387;DHT22;63966;47.914;22.266;2023-02-28T18:12:14;4.48;80.97
75387;DHT22;63966;47.914;22.266;2023-02-28T18:15:19;4.48;82.04
75387;DHT22;63966;47.914;22.266;2023-02-28T18:18:25;4.41;82.41
75387;DHT22;63966;47.914;22.266;2023-02-28T18:21:29;4.38;82.72
75387;DHT22;63966;47.914;22.266;2023-02-28T18:24:33;4.46;82.16
75387;DHT22;63966;47.914;22.266;2023-02-28T18:27:37;4.49;81.66
75387;DHT22;63966;47.914;22.266;2023-02-28T18:30:41;4.59;81.07
75387;DHT22;63966;47.914;22.266;2023-02-28T18:33:50;4.68;80.60
75387;DHT22;63966;47.914;22.266;2023-02-28T18:36:54;4.73;80.88
75387;DHT22;63966;47.914;22.266;2023-02-28T18:39:59;4.75;81.75
75387;DHT22;63966;47.914;22.266;2023-02-28T18:43:03;4.71;82.35
75387;DHT22;63966;47.914;22.266;2023-02-28T18:46:10;4.61;83.07
75387;DHT22;63966;47.914;22.266;2023-02-28T18:49:15;4.44;83.78
75387;DHT22;63966;47.914;22.266;2023-02-28T18:52:19;4.42;83.15
75387;DHT22;63966;47.914;22.266;2023-02-28T18:55:22;4.25;83.39
75387;DHT22;63966;47.914;22.266;2023-02-28T18:58:26;4.10;83.37
75387;DHT22;63966;47.914;22.266;2023-02-28T19:01:30;4.14;83.94
75387;DHT22;63966;47.914;22.266;2023-02-28T19:04:35;4.18;83.87
75387;DHT22;63966;47.914;22.266;2023-02-28T19:07:39;4.28;82.48
75387;DHT22;63966;47.914;22.266;2023-02-28T19:10:43;4.42;82.25
75387;DHT22;63966;47.914;22.266;2023-02-28T19:13:48;4.49;82.48
75387;DHT22;63966;47.914;22.266;2023-02-28T19:16:52;4.56;82.19
75387;DHT22;63966;47.914;22.266;2023-02-28T19:19:56;4.64;81.89
75387;DHT22;63966;47.914;22.266;2023-02-28T19:23:00;4.69;81.31
75387;DHT22;63966;47.914;22.266;2023-02-28T19:26:09;4.75;80.60
75387;DHT22;63966;47.914;22.266;2023-02-28T19:29:13;4.65;80.02
75387;DHT22;63966;47.914;22.266;2023-02-28T19:32:19;4.69;79.30
75387;DHT22;63966;47.914;22.266;2023-02-28T19:35:23;4.73;80.06
75387;DHT22;63966;47.914;22.266;2023-02-28T19:38:27;4.73;81.54
75387;DHT22;63966;47.914;22.266;2023-02-28T19:41:30;4.73;82.56
75387;DHT22;63966;47.914;22.266;2023-02-28T19:44:35;4.77;82.33
75387;DHT22;63966;47.914;22.266;2023-02-28T19:47:41;4.73;83.24
75387;DHT22;63966;47.914;22.266;2023-02-28T19:50:49;4.66;82.60
75387;DHT22;63966;47.914;22.266;2023-02-28T19:53:53;4.65;83.00
75387;DHT22;63966;47.914;22.266;2023-02-28T19:56:57;4.73;79.00
75387;DHT22;63966;47.914;22.266;2023-02-28T20:00:00;4.79;77.64
75387;DHT22;63966;47.914;22.266;2023-02-28T20:03:17;4.87;75.96
75387;DHT22;63966;47.914;22.266;2023-02-28T20:06:21;4.94;75.42
75387;DHT22;63966;47.914;22.266;2023-02-28T20:09:28;4.99;74.53
75387;DHT22;63966;47.914;22.266;2023-02-28T20:12:32;5.00;75.29
75387;DHT22;63966;47.914;22.266;2023-02-28T20:15:37;4.96;74.96
75387;DHT22;63966;47.914;22.266;2023-02-28T20:18:41;4.92;74.58
75387;DHT22;63966;47.914;22.266;2023-02-28T20:21:47;4.96;74.42
75387;DHT22;63966;47.914;22.266;2023-02-28T20:24:50;4.86;74.72
75387;DHT22;63966;47.914;22.266;2023-02-28T20:27:55;4.80;74.97
75387;DHT22;63966;47.914;22.266;2023-02-28T20:30:59;4.76;75.36
75387;DHT22;63966;47.914;22.266;2023-02-28T20:34:04;4.76;75.24
75387;DHT22;63966;47.914;22.266;2023-02-28T20:37:08;4.65;75.90
75387;DHT22;63966;47.914;22.266;2023-02-28T20:40:12;4.65;77.05
75387;DHT22;63966;47.914;22.266;2023-02-28T20:43:16;4.62;75.75
75387;DHT22;63966;47.914;22.266;2023-02-28T20:46:20;4.72;74.19
75387;DHT22;63966;47.914;22.266;2023-02-28T20:49:24;4.75;74.09
75387;DHT22;63966;47.914;22.266;2023-02-28T20:52:27;4.72;74.21
75387;DHT22;63966;47.914;22.266;2023-02-28T20:55:31;4.76;73.89
75387;DHT22;63966;47.914;22.266;2023-02-28T20:58:36;4.71;74.17
75387;DHT22;63966;47.914;22.266;2023-02-28T21:01:40;4.68;74.39
75387;DHT22;63966;47.914;22.266;2023-02-28T21:04:47;4.72;73.61
75387;DHT22;63966;47.914;22.266;2023-02-28T21:07:52;4.65;73.82
75387;DHT22;63966;47.914;22.266;2023-02-28T21:10:55;4.62;74.27
75387;DHT22;63966;47.914;22.266;2023-02-28T21:14:02;4.64;73.94
75387;DHT22;63966;47.914;22.266;2023-02-28T21:17:06;4.69;74.04
75387;DHT22;63966;47.914;22.266;2023-02-28T21:20:12;4.64;74.57
75387;DHT22;63966;47.914;22.266;2023-02-28T21:23:24;4.58;73.66
75387;DHT22;63966;47.914;22.266;2023-02-28T21:26:28;4.51;73.26
75387;DHT22;63966;47.914;22.266;2023-02-28T21:29:32;4.49;72.62
75387;DHT22;63966;47.914;22.266;2023-02-28T21:32:36;4.40;72.22
75387;DHT22;63966;47.914;22.266;2023-02-28T21:35:39;4.33;72.43
75387;DHT22;63966;47.914;22.266;2023-02-28T21:38:45;4.28;72.65
75387;DHT22;63966;47.914;22.266;2023-02-28T21:41:49;4.31;72.24
75387;DHT22;63966;47.914;22.266;2023-02-28T21:44:52;4.35;72.24
75387;DHT22;63966;47.914;22.266;2023-02-28T21:47:56;4.31;71.48
75387;DHT22;63966;47.914;22.266;2023-02-28T21:51:03;4.20;72.00
75387;DHT22;63966;47.914;22.266;2023-02-28T21:54:07;4.25;72.30
75387;DHT22;63966;47.914;22.266;2023-02-28T21:57:10;4.18;72.65
75387;DHT22;63966;47.914;22.266;2023-02-28T22:00:17;4.14;72.56
75387;DHT22;63966;47.914;22.266;2023-02-28T22:03:21;4.13;72.38
75387;DHT22;63966;47.914;22.266;2023-02-28T22:06:27;4.10;73.14
75387;DHT22;63966;47.914;22.266;2023-02-28T22:09:31;4.11;72.45
75387;DHT22;63966;47.914;22.266;2023-02-28T22:12:35;4.14;73.11
75387;DHT22;63966;47.914;22.266;2023-02-28T22:15:38;4.11;73.01
75387;DHT22;63966;47.914;22.266;2023-02-28T22:18:42;4.08;73.39
75387;DHT22;63966;47.914;22.266;2023-02-28T22:21:46;4.01;73.77
75387;DHT22;63966;47.914;22.266;2023-02-28T22:24:50;4.06;73.43
75387;DHT22;63966;47.914;22.266;2023-02-28T22:27:54;4.08;73.87
75387;DHT22;63966;47.914;22.266;2023-02-28T22:30:58;4.13;74.21
75387;DHT22;63966;47.914;22.266;2023-02-28T22:34:07;4.06;74.34
75387;DHT22;63966;47.914;22.266;2023-02-28T22:37:11;4.00;74.07